createdAt,value
2023-03-02T00:01:28.693Z,78.53
2023-03-02T00:03:59.326Z,78.80
2023-03-02T00:06:28.424Z,78.39
2023-03-02T00:08:57.413Z,78.33
2023-03-02T00:11:25.610Z,78.13
2023-03-02T00:13:53.120Z,77.85
2023-03-02T00:16:20.689Z,77.80
2023-03-02T00:18:48.193Z,77.91
2023-03-02T00:21:15.790Z,77.91
2023-03-02T00:23:43.330Z,77.94
2023-03-02T00:26:10.958Z,78.22
2023-03-02T00:28:38.517Z,78.10
2023-03-02T00:31:06.979Z,78.15
2023-03-02T00:33:34.637Z,78.18
2023-03-02T00:36:02.944Z,78.60
2023-03-02T00:38:30.788Z,79.54
2023-03-02T00:40:58.289Z,80.09
2023-03-02T00:43:26.664Z,80.07
2023-03-02T00:45:55.171Z,80.04
2023-03-02T00:48:23.001Z,79.79
2023-03-02T00:50:50.721Z,79.59
2023-03-02T00:53:18.276Z,79.48
2023-03-02T00:55:54.055Z,79.51
2023-03-02T00:58:22.057Z,79.77
2023-03-02T01:00:49.688Z,79.44
2023-03-02T01:03:17.342Z,79.28
2023-03-02T01:05:45.036Z,79.05
2023-03-02T01:08:12.604Z,79.02
2023-03-02T01:10:40.620Z,78.87
2023-03-02T01:13:08.250Z,78.67
2023-03-02T01:15:35.792Z,78.85
2023-03-02T01:18:03.487Z,78.77
2023-03-02T01:20:31.062Z,78.67
2023-03-02T01:22:58.591Z,78.86
2023-03-02T01:25:26.308Z,78.73
2023-03-02T01:27:54.206Z,78.98
2023-03-02T01:30:22.043Z,79.02
2023-03-02T01:32:49.607Z,79.00
2023-03-02T01:35:17.256Z,79.18
2023-03-02T01:37:44.817Z,79.16
2023-03-02T01:40:13.770Z,79.41
2023-03-02T01:42:47.124Z,79.52
2023-03-02T01:45:44.489Z,79.72
2023-03-02T01:48:15.737Z,79.77
2023-03-02T01:50:43.409Z,79.90
2023-03-02T01:53:13.108Z,79.74
2023-03-02T01:55:41.052Z,79.84
2023-03-02T01:58:08.724Z,79.95
2023-03-02T02:00:38.570Z,79.87
2023-03-02T02:03:14.285Z,80.00
2023-03-02T02:05:46.256Z,80.33
2023-03-02T02:08:14.674Z,80.38
2023-03-02T02:10:42.425Z,80.44
2023-03-02T02:13:11.191Z,80.12
2023-03-02T02:15:40.256Z,79.95
2023-03-02T02:18:07.847Z,80.03
2023-03-02T02:20:43.191Z,80.10
2023-03-02T02:23:34.156Z,80.36
2023-03-02T02:26:13.529Z,80.39
2023-03-02T02:28:47.340Z,80.39
2023-03-02T02:31:42.075Z,80.41
2023-03-02T02:34:22.695Z,80.64
2023-03-02T02:36:55.215Z,80.65
2023-03-02T02:39:30.239Z,80.63
2023-03-02T02:42:01.958Z,81.03
2023-03-02T02:44:31.050Z,80.82
2023-03-02T02:46:58.635Z,80.70
2023-03-02T02:49:31.925Z,80.69
2023-03-02T02:51:59.943Z,80.68
2023-03-02T02:54:29.909Z,80.60
2023-03-02T02:57:01.101Z,80.38
2023-03-02T02:59:33.101Z,80.20
2023-03-02T03:02:01.225Z,80.02
2023-03-02T03:04:31.103Z,80.00
2023-03-02T03:07:06.544Z,80.33
2023-03-02T03:09:34.136Z,80.55
2023-03-02T03:12:08.374Z,80.65
2023-03-02T03:14:39.791Z,80.48
2023-03-02T03:17:08.185Z,80.73
2023-03-02T03:19:35.742Z,80.69
2023-03-02T03:22:03.325Z,80.89
2023-03-02T03:24:33.405Z,80.81
2023-03-02T03:27:02.257Z,80.64
2023-03-02T03:29:30.257Z,80.65
2023-03-02T03:31:59.324Z,80.77
2023-03-02T03:34:28.440Z,80.68
2023-03-02T03:36:56.512Z,80.52
2023-03-02T03:39:24.020Z,80.68
2023-03-02T03:41:51.557Z,80.93
2023-03-02T03:44:19.085Z,81.19
2023-03-02T03:46:46.634Z,81.36
2023-03-02T03:49:14.286Z,81.48
2023-03-02T03:51:41.990Z,81.27
2023-03-02T03:54:10.639Z,80.80
2023-03-02T03:56:41.779Z,81.07
2023-03-02T03:59:11.111Z,80.94
2023-03-02T04:01:48.089Z,80.99
2023-03-02T04:04:17.724Z,81.08
2023-03-02T04:06:45.190Z,81.19
2023-03-02T04:09:13.142Z,81.79
2023-03-02T04:11:43.244Z,82.04
2023-03-02T04:14:11.637Z,82.09
2023-03-02T04:16:40.646Z,82.31
2023-03-02T04:19:09.601Z,82.45
2023-03-02T04:21:43.695Z,82.13
2023-03-02T04:24:12.057Z,82.08
2023-03-02T04:26:41.728Z,82.32
2023-03-02T04:29:10.996Z,82.24
2023-03-02T04:31:39.620Z,82.33
2023-03-02T04:34:07.907Z,82.57
2023-03-02T04:36:38.805Z,82.36
2023-03-02T04:39:07.726Z,82.53
2023-03-02T04:41:35.436Z,82.49
2023-03-02T04:44:03.549Z,82.38
2023-03-02T04:46:31.999Z,82.29
2023-03-02T04:49:00.332Z,82.30
2023-03-02T04:51:33.989Z,82.21
2023-03-02T04:54:05.486Z,81.90
2023-03-02T04:56:34.018Z,81.66
2023-03-02T04:59:02.112Z,81.55
2023-03-02T05:01:29.723Z,81.49
2023-03-02T05:03:57.270Z,81.59
2023-03-02T05:06:24.801Z,81.42
2023-03-02T05:08:53.521Z,81.62
2023-03-02T05:11:21.171Z,81.82
2023-03-02T05:13:54.731Z,81.72
2023-03-02T05:16:23.383Z,81.66
2023-03-02T05:18:50.985Z,81.78
2023-03-02T05:21:18.926Z,81.74
2023-03-02T05:23:46.955Z,81.73
2023-03-02T05:26:14.642Z,81.81
2023-03-02T05:28:43.172Z,82.00
2023-03-02T05:31:18.680Z,82.15
2023-03-02T05:33:47.069Z,82.16
2023-03-02T05:36:17.696Z,82.58
2023-03-02T05:38:46.832Z,82.93
2023-03-02T05:41:15.097Z,82.69
2023-03-02T05:43:42.692Z,82.14
2023-03-02T05:46:10.343Z,81.90
2023-03-02T05:48:37.918Z,81.80
2023-03-02T05:51:05.757Z,81.83
2023-03-02T05:53:33.309Z,81.53
2023-03-02T05:56:00.838Z,81.67
2023-03-02T05:58:28.478Z,81.69
2023-03-02T06:00:56.030Z,82.00
2023-03-02T06:03:23.624Z,81.73
2023-03-02T06:05:51.342Z,81.75
2023-03-02T06:08:20.461Z,81.94
2023-03-02T06:10:48.423Z,81.98
2023-03-02T06:13:16.421Z,82.07
2023-03-02T06:15:44.303Z,82.17
2023-03-02T06:18:11.873Z,82.18
2023-03-02T06:20:40.219Z,81.85
2023-03-02T06:23:07.888Z,82.13
2023-03-02T06:25:35.444Z,82.07
2023-03-02T06:28:03.054Z,81.98
2023-03-02T06:30:30.606Z,82.33
2023-03-02T06:32:58.146Z,82.31
2023-03-02T06:35:25.849Z,82.18
2023-03-02T06:37:53.569Z,82.49
2023-03-02T06:40:21.144Z,82.19
2023-03-02T06:42:48.722Z,82.14
2023-03-02T06:45:16.465Z,82.26
2023-03-02T06:47:44.042Z,81.80
2023-03-02T06:50:11.874Z,81.76
2023-03-02T06:52:39.486Z,81.74
2023-03-02T06:55:07.541Z,81.94
2023-03-02T06:57:35.102Z,81.83
2023-03-02T07:00:06.705Z,81.39
2023-03-02T07:02:34.293Z,81.26
2023-03-02T07:05:02.507Z,82.22
2023-03-02T07:07:30.036Z,81.27
2023-03-02T07:09:57.548Z,80.85
2023-03-02T07:12:25.267Z,80.55
2023-03-02T07:14:52.867Z,80.83
2023-03-02T07:17:20.379Z,80.43
2023-03-02T07:19:47.949Z,80.17
2023-03-02T07:22:15.511Z,80.07
2023-03-02T07:24:45.046Z,80.02
2023-03-02T07:27:12.656Z,79.88
2023-03-02T07:29:40.333Z,79.62
2023-03-02T07:32:08.536Z,79.61
2023-03-02T07:34:36.845Z,79.38
2023-03-02T07:37:04.497Z,79.26
2023-03-02T07:39:32.382Z,79.30
2023-03-02T07:42:01.156Z,79.15
2023-03-02T07:44:28.887Z,79.28
2023-03-02T07:46:56.799Z,78.86
2023-03-02T07:49:24.475Z,78.63
2023-03-02T07:51:52.289Z,78.89
2023-03-02T07:54:19.876Z,78.91
2023-03-02T07:56:47.563Z,78.50
2023-03-02T07:59:15.153Z,78.40
2023-03-02T08:01:42.903Z,78.41
2023-03-02T08:04:10.505Z,77.97
2023-03-02T08:06:39.230Z,77.78
2023-03-02T08:09:08.121Z,77.33
2023-03-02T08:11:35.785Z,77.19
2023-03-02T08:14:03.359Z,77.16
2023-03-02T08:16:30.976Z,77.15
2023-03-02T08:18:59.895Z,76.92
2023-03-02T08:21:29.140Z,76.81
2023-03-02T08:23:57.968Z,76.49
2023-03-02T08:26:25.571Z,76.00
2023-03-02T08:28:53.129Z,75.94
2023-03-02T08:31:20.725Z,75.60
2023-03-02T08:33:48.268Z,75.00
2023-03-02T08:36:18.671Z,75.44
2023-03-02T08:38:46.692Z,75.15
2023-03-02T08:41:17.226Z,74.55
2023-03-02T08:43:44.834Z,74.31
2023-03-02T08:46:14.062Z,73.19
2023-03-02T08:48:42.117Z,72.86
2023-03-02T08:51:13.269Z,72.86
2023-03-02T08:53:43.598Z,71.89
2023-03-02T08:56:19.923Z,71.26
2023-03-02T08:58:49.492Z,70.88
2023-03-02T09:01:19.746Z,70.96
2023-03-02T09:03:47.413Z,70.62
2023-03-02T09:06:15.678Z,69.88
2023-03-02T09:08:43.891Z,69.38
2023-03-02T09:11:11.402Z,69.33
2023-03-02T09:13:39.007Z,67.21
2023-03-02T09:16:06.955Z,66.15
2023-03-02T09:18:35.721Z,65.36
2023-03-02T09:21:04.172Z,64.09
2023-03-02T09:23:32.887Z,63.02
2023-03-02T09:26:00.476Z,61.37
2023-03-02T09:28:28.200Z,61.40
2023-03-02T09:30:59.581Z,60.80
2023-03-02T09:33:28.019Z,60.36
2023-03-02T09:35:55.690Z,58.80
2023-03-02T09:38:23.945Z,59.18
2023-03-02T09:41:17.603Z,58.00
2023-03-02T09:44:22.611Z,55.97
2023-03-02T09:46:54.408Z,55.91
2023-03-02T09:49:27.598Z,54.81
2023-03-02T09:52:09.731Z,52.41
2023-03-02T09:54:38.794Z,51.15
2023-03-02T09:57:21.907Z,51.34
2023-03-02T09:59:59.857Z,50.89
2023-03-02T10:02:37.898Z,49.67
2023-03-02T10:06:16.993Z,49.05
2023-03-02T10:08:44.660Z,47.64
2023-03-02T10:11:12.186Z,46.93
2023-03-02T10:14:02.820Z,44.89
2023-03-02T10:16:36.587Z,44.21
2023-03-02T10:19:25.032Z,44.62
2023-03-02T10:22:38.632Z,42.60
2023-03-02T10:25:31.148Z,41.51
2023-03-02T10:28:12.659Z,40.38
2023-03-02T10:30:40.343Z,40.46
2023-03-02T10:33:19.636Z,38.39
2023-03-02T10:35:49.826Z,36.88
2023-03-02T10:38:19.175Z,36.81
2023-03-02T10:40:48.865Z,34.43
2023-03-02T10:43:35.274Z,33.41
2023-03-02T10:46:05.729Z,36.19
2023-03-02T10:48:34.136Z,34.41
2023-03-02T10:51:01.741Z,34.67
2023-03-02T10:53:29.333Z,34.46
2023-03-02T10:55:56.970Z,34.10
2023-03-02T10:58:30.640Z,34.85
2023-03-02T11:01:15.061Z,34.16
2023-03-02T11:03:42.883Z,31.83
2023-03-02T11:06:21.323Z,31.93
2023-03-02T11:09:21.525Z,33.18
2023-03-02T11:11:54.434Z,32.15
2023-03-02T11:14:22.490Z,31.55
2023-03-02T11:16:51.879Z,30.41
2023-03-02T11:19:35.201Z,30.51
2023-03-02T11:22:24.384Z,29.53
2023-03-02T11:24:57.984Z,28.80
2023-03-02T11:27:29.708Z,28.42
2023-03-02T11:30:11.512Z,28.93
2023-03-02T11:32:47.948Z,28.68
2023-03-02T11:35:31.652Z,28.14
2023-03-02T11:38:23.569Z,26.44
2023-03-02T11:41:02.881Z,23.75
2023-03-02T11:43:30.795Z,21.50
2023-03-02T11:46:01.798Z,21.79
2023-03-02T11:48:33.368Z,23.20
2023-03-02T11:51:04.509Z,23.40
2023-03-02T11:53:41.541Z,23.93
2023-03-02T11:56:09.663Z,21.98
2023-03-02T11:58:38.771Z,19.97
2023-03-02T12:01:13.198Z,20.84
2023-03-02T12:03:41.937Z,22.54
2023-03-02T12:06:18.838Z,22.51
2023-03-02T12:08:48.114Z,21.62
2023-03-02T12:11:18.564Z,21.59
2023-03-02T12:13:59.324Z,21.45
2023-03-02T12:16:43.502Z,20.85
2023-03-02T12:19:25.673Z,20.87
2023-03-02T12:22:03.067Z,20.69
2023-03-02T12:24:33.576Z,19.77
2023-03-02T12:27:15.048Z,19.67
2023-03-02T12:30:09.005Z,19.75
2023-03-02T12:32:37.645Z,18.91
2023-03-02T12:35:08.061Z,18.75
2023-03-02T12:37:51.854Z,18.51
2023-03-02T12:40:44.227Z,17.83
2023-03-02T12:43:33.886Z,17.43
2023-03-02T12:46:16.813Z,16.30
2023-03-02T12:48:58.013Z,16.42
2023-03-02T12:51:33.379Z,16.23
2023-03-02T12:54:14.890Z,17.38
2023-03-02T12:56:42.620Z,19.11
2023-03-02T12:59:22.093Z,18.45
2023-03-02T13:01:49.730Z,17.51
2023-03-02T13:04:27.185Z,17.64
2023-03-02T13:06:55.088Z,15.97
2023-03-02T13:09:23.072Z,17.60
2023-03-02T13:11:50.906Z,16.04
2023-03-02T13:14:20.835Z,16.87
2023-03-02T13:17:00.224Z,16.55
2023-03-02T13:19:28.659Z,16.67
2023-03-02T13:21:56.756Z,14.90
2023-03-02T13:24:44.696Z,15.54
2023-03-02T13:27:21.331Z,16.57
2023-03-02T13:29:50.235Z,16.07
2023-03-02T13:32:22.079Z,15.52
2023-03-02T13:34:55.363Z,14.67
2023-03-02T13:37:34.760Z,14.30
2023-03-02T13:40:05.007Z,14.94
2023-03-02T13:42:40.568Z,15.09
2023-03-02T13:45:29.516Z,14.74
2023-03-02T13:47:59.714Z,15.05
2023-03-02T13:50:31.162Z,15.35
2023-03-02T13:53:02.193Z,14.71
2023-03-02T13:55:29.817Z,13.60
2023-03-02T13:57:58.116Z,14.90
2023-03-02T14:00:33.152Z,14.58
2023-03-02T14:03:01.597Z,14.41
2023-03-02T14:05:29.841Z,15.15
2023-03-02T14:07:57.460Z,14.85
2023-03-02T14:10:25.654Z,14.02
2023-03-02T14:13:03.427Z,13.74
2023-03-02T14:15:31.715Z,15.29
2023-03-02T14:18:00.353Z,14.87
2023-03-02T14:20:27.960Z,15.71
2023-03-02T14:22:55.642Z,16.33
2023-03-02T14:25:23.302Z,16.48
2023-03-02T14:27:50.876Z,15.89
2023-03-02T14:30:20.935Z,16.64
2023-03-02T14:32:49.512Z,16.92
2023-03-02T14:35:17.104Z,16.84
2023-03-02T14:37:48.642Z,16.14
2023-03-02T14:40:27.557Z,16.00
2023-03-02T14:42:55.235Z,16.51
2023-03-02T14:45:22.876Z,16.87
2023-03-02T14:47:50.475Z,17.14
2023-03-02T14:50:18.177Z,15.93
2023-03-02T14:52:49.677Z,16.55
2023-03-02T14:55:28.891Z,17.16
2023-03-02T14:58:03.444Z,16.47
2023-03-02T15:00:31.482Z,16.62
2023-03-02T15:02:59.397Z,17.16
2023-03-02T15:05:27.124Z,17.41
2023-03-02T15:07:54.863Z,17.67
2023-03-02T15:10:24.342Z,18.51
2023-03-02T15:12:51.993Z,18.20
2023-03-02T15:15:19.597Z,18.25
2023-03-02T15:17:47.199Z,18.63
2023-03-02T15:20:16.111Z,19.14
2023-03-02T15:22:43.847Z,20.33
2023-03-02T15:25:11.568Z,21.84
2023-03-02T15:27:39.179Z,23.74
2023-03-02T15:30:07.511Z,25.60
2023-03-02T15:32:36.662Z,27.07
2023-03-02T15:35:05.075Z,28.58
2023-03-02T15:37:32.678Z,29.73
2023-03-02T15:40:00.324Z,30.06
2023-03-02T15:42:27.857Z,29.74
2023-03-02T15:44:58.286Z,29.68
2023-03-02T15:47:26.024Z,29.28
2023-03-02T15:49:53.644Z,29.40
2023-03-02T15:52:21.234Z,29.06
2023-03-02T15:54:48.876Z,29.04
2023-03-02T15:57:16.521Z,29.43
2023-03-02T15:59:44.301Z,30.16
2023-03-02T16:02:14.186Z,31.25
2023-03-02T16:04:42.725Z,32.46
2023-03-02T16:07:10.318Z,33.36
2023-03-02T16:09:37.894Z,34.57
2023-03-02T16:12:06.171Z,36.02
2023-03-02T16:14:34.196Z,37.19
2023-03-02T16:17:01.889Z,38.26
2023-03-02T16:19:29.554Z,39.79
2023-03-02T16:21:57.225Z,40.80
2023-03-02T16:24:25.056Z,41.76
2023-03-02T16:26:53.624Z,42.73
2023-03-02T16:29:21.746Z,43.85
2023-03-02T16:31:49.774Z,44.48
2023-03-02T16:34:17.312Z,45.21
2023-03-02T16:36:45.441Z,45.85
2023-03-02T16:39:13.351Z,46.53
2023-03-02T16:41:43.496Z,47.34
2023-03-02T16:44:11.796Z,47.80
2023-03-02T16:46:39.405Z,48.34
2023-03-02T16:49:07.420Z,49.08
2023-03-02T16:51:35.410Z,49.62
2023-03-02T16:54:03.967Z,50.10
2023-03-02T16:56:31.519Z,50.59
2023-03-02T16:59:00.390Z,51.30
2023-03-02T17:01:28.359Z,51.98
2023-03-02T17:03:56.486Z,52.36
2023-03-02T17:06:24.836Z,53.14
2023-03-02T17:08:52.461Z,53.69
2023-03-02T17:11:20.560Z,54.56
2023-03-02T17:13:48.130Z,54.93
2023-03-02T17:16:15.769Z,55.04
2023-03-02T17:18:44.041Z,55.50
2023-03-02T17:21:11.632Z,56.44
2023-03-02T17:23:39.233Z,57.27
2023-03-02T17:26:06.840Z,57.27
2023-03-02T17:28:34.421Z,57.53
2023-03-02T17:31:04.238Z,58.00
2023-03-02T17:33:32.265Z,57.90
2023-03-02T17:36:04.398Z,58.33
2023-03-02T17:38:32.068Z,58.63
2023-03-02T17:41:06.975Z,58.57
2023-03-02T17:43:36.496Z,58.82
2023-03-02T17:46:25.231Z,59.16
2023-03-02T17:48:56.632Z,59.62
2023-03-02T17:51:25.487Z,59.78
2023-03-02T17:53:54.512Z,60.21
2023-03-02T17:56:25.603Z,60.34
2023-03-02T17:59:00.890Z,60.65
2023-03-02T18:01:29.583Z,61.00
2023-03-02T18:03:57.733Z,61.44
2023-03-02T18:06:25.409Z,61.90
2023-03-02T18:08:52.992Z,62.20
2023-03-02T18:11:22.623Z,62.72
2023-03-02T18:13:50.613Z,63.46
2023-03-02T18:16:18.221Z,63.83
2023-03-02T18:18:45.865Z,63.82
2023-03-02T18:21:13.427Z,64.22
2023-03-02T18:23:41.232Z,64.63
2023-03-02T18:26:08.855Z,64.70
2023-03-02T18:28:36.411Z,65.07
2023-03-02T18:31:04.082Z,65.36
2023-03-02T18:33:31.671Z,65.50
2023-03-02T18:35:59.272Z,65.65
2023-03-02T18:38:27.010Z,65.86
2023-03-02T18:40:54.695Z,66.06
2023-03-02T18:43:22.297Z,66.71
2023-03-02T18:45:49.908Z,67.15
2023-03-02T18:48:20.065Z,67.75
2023-03-02T18:50:47.770Z,67.97
2023-03-02T18:53:15.916Z,67.75
2023-03-02T18:55:43.518Z,67.82
2023-03-02T18:58:17.657Z,68.28
2023-03-02T19:00:46.440Z,68.39
2023-03-02T19:03:16.363Z,68.75
2023-03-02T19:05:44.844Z,68.68
2023-03-02T19:08:12.504Z,68.83
2023-03-02T19:10:40.483Z,69.01
2023-03-02T19:13:08.550Z,69.29
2023-03-02T19:15:36.068Z,69.12
2023-03-02T19:18:03.812Z,69.38
2023-03-02T19:20:31.401Z,69.79
2023-03-02T19:22:59.204Z,69.83
2023-03-02T19:25:27.105Z,70.06
2023-03-02T19:27:54.718Z,70.48
2023-03-02T19:30:25.301Z,70.92
2023-03-02T19:32:53.567Z,71.07
2023-03-02T19:35:23.912Z,71.25
2023-03-02T19:37:52.086Z,71.27
2023-03-02T19:40:22.383Z,71.61
2023-03-02T19:42:50.525Z,71.59
2023-03-02T19:45:22.199Z,71.68
2023-03-02T19:47:49.824Z,71.72
2023-03-02T19:50:18.952Z,72.00
2023-03-02T19:52:47.457Z,72.15
2023-03-02T19:55:16.282Z,72.45
2023-03-02T19:57:45.001Z,72.76
2023-03-02T20:00:15.697Z,73.30
2023-03-02T20:02:43.442Z,73.43
2023-03-02T20:05:11.580Z,73.51
2023-03-02T20:07:41.655Z,73.39
2023-03-02T20:10:11.302Z,73.59
2023-03-02T20:12:38.854Z,73.99
2023-03-02T20:15:07.066Z,74.20
2023-03-02T20:17:34.822Z,74.60
2023-03-02T20:20:02.429Z,74.64
2023-03-02T20:22:30.018Z,74.86
2023-03-02T20:24:57.531Z,74.91
2023-03-02T20:27:25.281Z,74.97
2023-03-02T20:29:52.862Z,75.27
2023-03-02T20:32:20.566Z,75.50
2023-03-02T20:34:48.336Z,75.74
2023-03-02T20:37:15.973Z,75.95
2023-03-02T20:39:45.052Z,75.98
2023-03-02T20:42:12.667Z,75.91
2023-03-02T20:44:40.472Z,75.93
2023-03-02T20:47:13.664Z,76.24
2023-03-02T20:49:41.468Z,76.30
2023-03-02T20:52:09.901Z,76.49
2023-03-02T20:54:41.763Z,76.65
2023-03-02T20:57:14.768Z,76.68
2023-03-02T20:59:43.284Z,76.53
2023-03-02T21:02:11.064Z,76.84
2023-03-02T21:04:38.664Z,77.25
2023-03-02T21:07:07.155Z,77.21
2023-03-02T21:09:34.778Z,77.48
2023-03-02T21:12:04.149Z,77.84
2023-03-02T21:14:31.967Z,78.45
2023-03-02T21:17:01.495Z,78.71
2023-03-02T21:19:29.134Z,78.86
2023-03-02T21:21:57.483Z,78.84
2023-03-02T21:24:25.026Z,78.72
2023-03-02T21:26:53.951Z,78.55
2023-03-02T21:29:24.963Z,78.49
2023-03-02T21:31:53.100Z,78.54
2023-03-02T21:34:20.811Z,78.32
2023-03-02T21:36:49.205Z,78.34
2023-03-02T21:39:16.826Z,78.38
2023-03-02T21:41:44.366Z,78.70
2023-03-02T21:44:11.974Z,78.73
2023-03-02T21:46:39.559Z,78.92
2023-03-02T21:49:07.641Z,79.22
2023-03-02T21:51:35.340Z,79.22
2023-03-02T21:54:03.035Z,79.17
2023-03-02T21:56:31.198Z,79.15
2023-03-02T21:58:58.967Z,79.12
2023-03-02T22:01:26.849Z,78.99
2023-03-02T22:03:54.492Z,79.09
2023-03-02T22:06:28.371Z,78.96
2023-03-02T22:08:56.170Z,79.06
2023-03-02T22:11:30.224Z,79.38
2023-03-02T22:14:01.054Z,79.54
2023-03-02T22:16:34.927Z,79.77
2023-03-02T22:19:17.897Z,79.64
2023-03-02T22:21:47.208Z,79.57
2023-03-02T22:24:29.934Z,79.66
2023-03-02T22:27:19.046Z,79.89
2023-03-02T22:29:47.950Z,79.90
2023-03-02T22:32:25.194Z,80.01
2023-03-02T22:34:55.891Z,79.86
2023-03-02T22:37:27.535Z,79.82
2023-03-02T22:39:57.869Z,79.83
2023-03-02T22:42:28.950Z,79.90
2023-03-02T22:45:23.610Z,79.87
2023-03-02T22:47:53.370Z,80.06
2023-03-02T22:50:25.358Z,80.09
2023-03-02T22:52:55.152Z,80.25
2023-03-02T22:55:38.760Z,80.47
2023-03-02T22:58:30.836Z,81.20
2023-03-02T23:01:00.503Z,81.11
2023-03-02T23:03:40.593Z,81.01
2023-03-02T23:06:45.428Z,80.93
2023-03-02T23:09:16.398Z,80.84
2023-03-02T23:11:45.165Z,80.81
2023-03-02T23:14:23.810Z,81.09
2023-03-02T23:17:05.554Z,80.89
2023-03-02T23:19:33.073Z,80.73
2023-03-02T23:22:00.654Z,80.71
2023-03-02T23:24:28.269Z,80.84
2023-03-02T23:26:56.015Z,80.78
2023-03-02T23:29:23.648Z,80.57
2023-03-02T23:31:51.248Z,80.86
2023-03-02T23:34:18.795Z,80.76
2023-03-02T23:36:46.328Z,81.06
2023-03-02T23:39:13.893Z,80.94
2023-03-02T23:41:41.642Z,81.02
2023-03-02T23:44:09.240Z,81.13
2023-03-02T23:46:36.752Z,81.18
2023-03-02T23:49:04.357Z,81.11
2023-03-02T23:51:32.026Z,80.77
2023-03-02T23:53:59.586Z,80.86
2023-03-02T23:56:27.135Z,80.91
2023-03-02T23:58:54.721Z,81.10
